Time;durP1;ratioP1;P1;durP2;ratioP2;P2;SDS_P1;SDS_P2;PMS_P1;PMS_P2;Temp;Humidity;BMP_temperature;BMP_pressure;BME280_temperature;BME280_humidity;BME280_pressure;Samples;Min_cycle;Max_cycle;Signal;HPM_P1;HPM_P2
2023/09/16 00:01:05;;;;;;;21.65;15.52;;;;;;;19.66;80.54;97964.59;10407795;28;20047;-53
2023/09/16 00:06:04;;;;;;;18.33;15.98;;;;;;;19.74;81.26;97988.88;10409389;28;20131;-53
2023/09/16 00:11:03;;;;;;;20.98;15.85;;;;;;;19.49;81.39;97937.97;10408305;28;20020;-54
2023/09/16 00:16:04;;;;;;;22.42;16.98;;;;;;;19.69;81.64;97982.91;10415363;28;20064;-54
2023/09/16 00:21:03;;;;;;;19.80;16.48;;;;;;;19.77;81.86;97994.03;10417921;28;20051;-53
2023/09/16 00:26:03;;;;;;;23.00;17.20;;;;;;;19.81;81.70;97986.88;10415588;28;20112;-54
2023/09/16 00:31:03;;;;;;;21.55;17.10;;;;;;;19.80;81.83;97979.91;10415291;28;20140;-54
2023/09/16 00:36:02;;;;;;;23.77;16.98;;;;;;;19.76;82.68;97973.88;10413605;28;20126;-55
2023/09/16 00:41:01;;;;;;;20.95;17.00;;;;;;;19.75;83.03;97961.63;10412759;28;20062;-55
2023/09/16 00:46:00;;;;;;;20.08;17.02;;;;;;;19.67;83.09;97955.75;10413741;28;20059;-54
2023/09/16 00:50:59;;;;;;;23.73;17.20;;;;;;;19.57;83.20;97957.00;10413078;28;20028;-55
2023/09/16 00:55:59;;;;;;;20.95;16.00;;;;;;;19.41;82.97;97949.56;10412416;28;20124;-52
2023/09/16 01:00:58;;;;;;;23.08;16.98;;;;;;;19.27;83.24;97969.38;10414772;28;20225;-53
2023/09/16 01:05:59;;;;;;;22.80;16.42;;;;;;;19.17;83.95;97981.97;10413010;28;20755;-53
2023/09/16 01:10:58;;;;;;;21.17;17.60;;;;;;;19.09;84.85;97983.97;10410451;28;20194;-53
2023/09/16 01:16:16;;;;;;;21.48;16.30;;;;;;;18.55;85.68;97928.63;10411606;28;20451;-53
2023/09/16 01:21:15;;;;;;;20.38;16.98;;;;;;;18.69;85.60;97937.88;10412898;28;20120;-53
2023/09/16 01:26:14;;;;;;;19.95;16.50;;;;;;;19.00;85.04;97975.47;10413041;28;20048;-53
2023/09/16 01:31:13;;;;;;;22.17;17.90;;;;;;;18.93;84.98;97952.91;10410028;28;20040;-53
2023/09/16 01:36:18;;;;;;;19.52;16.35;;;;;;;19.08;84.91;97979.63;10414593;28;20131;-53
2023/09/16 01:41:19;;;;;;;18.15;16.08;;;;;;;19.16;84.44;97982.91;10414188;28;20064;-53
2023/09/16 01:46:18;;;;;;;18.50;15.98;;;;;;;19.09;84.61;97983.97;10411799;28;20048;-53
2023/09/16 01:51:17;;;;;;;17.38;15.38;;;;;;;19.12;84.19;97986.53;10410054;28;20034;-54
2023/09/16 01:56:16;;;;;;;18.92;15.85;;;;;;;19.11;84.29;97995.31;10412533;28;20107;-54
2023/09/16 02:01:15;;;;;;;20.77;17.35;;;;;;;19.08;84.62;97987.53;10410985;28;20036;-54
2023/09/16 02:06:14;;;;;;;19.40;17.38;;;;;;;19.10;84.20;97983.06;10412444;28;20031;-54
2023/09/16 02:11:13;;;;;;;20.40;17.17;;;;;;;19.11;84.18;97988.31;10409557;28;20519;-55
2023/09/16 02:16:13;;;;;;;21.42;18.27;;;;;;;18.97;84.02;97966.81;10413293;28;20488;-54
2023/09/16 02:21:12;;;;;;;19.13;17.13;;;;;;;18.89;84.06;97968.84;10411869;28;20067;-54
2023/09/16 02:26:11;;;;;;;24.27;17.67;;;;;;;18.96;84.39;97996.66;10414940;28;20056;-52
2023/09/16 02:31:10;;;;;;;19.75;16.20;;;;;;;18.95;84.31;97997.56;10414946;28;20016;-51
2023/09/16 02:36:09;;;;;;;20.52;17.73;;;;;;;18.90;84.61;97992.47;10411345;28;20070;-52
2023/09/16 02:41:08;;;;;;;20.42;17.10;;;;;;;18.68;84.81;97971.19;10411940;28;20032;-52
2023/09/16 02:46:07;;;;;;;22.73;18.50;;;;;;;18.87;84.79;97984.63;10412374;28;20120;-52
2023/09/16 02:51:09;;;;;;;20.90;17.70;;;;;;;18.78;84.83;97991.06;10410742;28;20075;-56
2023/09/16 02:56:09;;;;;;;19.48;16.83;;;;;;;18.60;85.52;97988.94;10412058;28;20056;-54
2023/09/16 03:01:11;;;;;;;18.45;16.38;;;;;;;18.35;86.01;97967.78;10410650;28;20078;-56
2023/09/16 03:06:10;;;;;;;19.58;17.50;;;;;;;18.60;85.89;98010.84;10411417;28;20063;-55
2023/09/16 03:11:09;;;;;;;22.60;17.38;;;;;;;18.48;86.12;98000.69;10408569;28;20024;-52
2023/09/16 03:16:26;;;;;;;20.00;17.80;;;;;;;18.58;86.19;98020.53;10407272;28;20558;-52
2023/09/16 03:21:25;;;;;;;22.77;18.83;;;;;;;18.43;86.48;97996.44;10406801;28;20064;-52
2023/09/16 03:26:24;;;;;;;20.20;18.05;;;;;;;18.60;86.48;98026.59;10408154;28;20052;-52
2023/09/16 03:31:23;;;;;;;21.75;19.08;;;;;;;18.61;86.91;98033.56;10405409;28;20046;-52
2023/09/16 03:36:22;;;;;;;21.75;19.45;;;;;;;18.58;87.18;98041.56;10405914;28;20135;-52
2023/09/16 03:41:22;;;;;;;22.65;19.35;;;;;;;18.40;87.15;98002.66;10407666;28;20029;-52
2023/09/16 03:46:21;;;;;;;22.55;19.50;;;;;;;18.67;86.79;98036.94;10407732;28;20052;-52
2023/09/16 03:51:20;;;;;;;22.30;19.98;;;;;;;18.62;87.00;98037.09;10413711;28;20059;-52
2023/09/16 03:56:19;;;;;;;22.60;19.52;;;;;;;18.65;86.55;98036.97;10417307;28;20769;-52
2023/09/16 04:01:18;;;;;;;25.73;21.20;;;;;;;18.59;86.83;98045.88;10414450;28;20043;-53
2023/09/16 04:06:17;;;;;;;24.73;20.58;;;;;;;18.50;86.94;98054.06;10414712;28;20055;-53
2023/09/16 04:11:16;;;;;;;22.85;20.33;;;;;;;18.45;87.59;98058.56;10414626;28;20043;-53
2023/09/16 04:16:15;;;;;;;24.00;19.50;;;;;;;18.46;87.77;98065.56;10412700;28;20036;-53
2023/09/16 04:21:13;;;;;;;21.85;19.38;;;;;;;17.74;87.54;97934.41;10413462;28;20028;-52
2023/09/16 04:26:15;;;;;;;23.85;20.33;;;;;;;18.62;87.62;98068.63;10414559;28;20031;-53
2023/09/16 04:31:14;;;;;;;24.52;19.67;;;;;;;18.74;87.59;98080.59;10412071;28;20056;-53
2023/09/16 04:36:12;;;;;;;24.63;18.75;;;;;;;18.76;87.35;98070.88;10412065;28;20032;-53
2023/09/16 04:41:13;;;;;;;21.42;17.92;;;;;;;18.94;86.64;98088.72;10411903;28;20040;-53
2023/09/16 04:46:16;;;;;;;21.70;17.85;;;;;;;18.95;86.37;98100.16;10411621;28;20063;-52
2023/09/16 04:51:16;;;;;;;23.10;19.88;;;;;;;18.86;85.54;98074.97;10409299;28;20059;-53
2023/09/16 04:56:15;;;;;;;21.27;18.35;;;;;;;19.00;85.52;98104.34;10413407;28;20452;-53
2023/09/16 05:01:14;;;;;;;22.08;17.75;;;;;;;19.03;85.25;98109.50;10410914;28;20565;-53
2023/09/16 05:06:13;;;;;;;21.70;18.10;;;;;;;19.05;84.75;98100.72;10412839;28;20536;-53
2023/09/16 05:11:12;;;;;;;21.88;17.17;;;;;;;19.09;83.61;98110.22;10414227;28;20423;-54
2023/09/16 05:16:11;;;;;;;23.55;18.52;;;;;;;19.02;85.00;98107.81;10412248;28;20545;-53
2023/09/16 05:21:10;;;;;;;23.05;18.50;;;;;;;18.70;86.19;98115.75;10415412;28;20056;-52
2023/09/16 05:26:12;;;;;;;22.60;19.58;;;;;;;18.53;87.04;98111.78;10412534;28;20021;-53
2023/09/16 05:31:11;;;;;;;25.10;20.48;;;;;;;18.34;87.65;98076.41;10410104;28;20085;-53
2023/09/16 05:36:10;;;;;;;25.88;19.80;;;;;;;18.50;88.19;98097.84;10412318;28;20777;-53
2023/09/16 05:41:09;;;;;;;25.55;19.27;;;;;;;18.42;88.29;98087.56;10412558;28;20557;-54
2023/09/16 05:46:08;;;;;;;27.77;19.52;;;;;;;18.54;88.38;98110.88;10412012;28;20119;-54
2023/09/16 05:51:08;;;;;;;26.45;20.52;;;;;;;18.53;88.08;98090.75;10413652;28;20067;-54
2023/09/16 05:56:08;;;;;;;25.55;20.30;;;;;;;18.71;88.08;98107.78;10413612;28;20063;-53
2023/09/16 06:01:07;;;;;;;25.55;20.15;;;;;;;18.79;88.17;98107.59;10411347;28;20679;-53
2023/09/16 06:06:06;;;;;;;25.30;20.23;;;;;;;18.90;88.22;98109.91;10410751;28;20483;-54
2023/09/16 06:11:05;;;;;;;25.13;20.85;;;;;;;19.00;88.06;98112.25;10410070;28;20097;-54
2023/09/16 06:16:07;;;;;;;27.63;21.42;;;;;;;19.13;87.46;98109.25;10408136;28;20040;-54
2023/09/16 06:21:05;;;;;;;32.65;22.73;;;;;;;19.17;87.18;98117.00;10405202;28;20135;-54
2023/09/16 06:26:05;;;;;;;26.92;21.42;;;;;;;18.99;87.99;98128.94;10406439;28;20407;-54
2023/09/16 06:31:04;;;;;;;23.02;20.08;;;;;;;18.93;88.34;98142.25;10406787;28;20448;-54
2023/09/16 06:36:03;;;;;;;22.80;19.83;;;;;;;18.89;88.65;98147.63;10407785;28;20075;-54
2023/09/16 06:41:04;;;;;;;25.23;21.88;;;;;;;18.76;90.08;98145.38;10400523;28;20159;-54
2023/09/16 06:46:02;;;;;;;26.83;22.42;;;;;;;18.65;90.91;98172.81;10405658;28;20052;-53
2023/09/16 06:51:01;;;;;;;27.63;23.45;;;;;;;18.46;93.74;98167.19;10407628;28;20396;-53
2023/09/16 06:56:00;;;;;;;28.20;25.17;;;;;;;18.10;96.22;98168.06;10406831;28;20112;-52
2023/09/16 07:01:09;;;;;;;29.52;24.50;;;;;;;17.49;97.43;98186.06;10406661;28;20036;-52
2023/09/16 07:06:08;;;;;;;35.45;25.85;;;;;;;16.94;100.00;98187.22;10405936;28;20063;-52
2023/09/16 07:11:07;;;;;;;39.60;29.55;;;;;;;16.86;100.00;98184.78;10406603;28;20040;-51
2023/09/16 07:16:06;;;;;;;37.28;29.08;;;;;;;17.10;100.00;98179.94;10405936;28;20137;-51
2023/09/16 07:21:06;;;;;;;37.13;30.55;;;;;;;17.49;100.00;98191.31;10405138;28;20040;-52
2023/09/16 07:26:05;;;;;;;35.22;29.38;;;;;;;17.76;100.00;98200.38;10405138;28;20052;-52
2023/09/16 07:31:04;;;;;;;34.60;28.63;;;;;;;18.14;100.00;98210.88;10406802;28;20047;-52
2023/09/16 07:36:03;;;;;;;35.10;27.85;;;;;;;18.22;100.00;98169.50;10405255;28;20029;-52
2023/09/16 07:41:02;;;;;;;34.10;29.08;;;;;;;18.67;100.00;98208.69;10406754;28;20468;-52
2023/09/16 07:46:02;;;;;;;35.33;27.90;;;;;;;18.99;100.00;98213.09;10404502;28;20709;-52
2023/09/16 07:51:01;;;;;;;31.65;27.30;;;;;;;19.08;100.00;98206.69;10404590;28;20056;-52
2023/09/16 07:55:59;;;;;;;27.15;24.15;;;;;;;19.36;100.00;98214.66;10404498;28;20059;-52
2023/09/16 08:00:58;;;;;;;27.55;24.25;;;;;;;19.65;100.00;98207.72;10406397;28;20115;-52
2023/09/16 08:05:57;;;;;;;29.35;24.83;;;;;;;19.87;100.00;98206.13;10404690;28;20035;-52
2023/09/16 08:10:56;;;;;;;27.55;24.20;;;;;;;20.24;100.00;98217.28;10402699;28;20841;-54
2023/09/16 08:15:55;;;;;;;27.25;22.75;;;;;;;20.44;95.94;98217.50;10402194;28;20460;-54
2023/09/16 08:20:55;;;;;;;28.50;23.85;;;;;;;20.31;94.00;98215.31;10405161;28;20060;-53
2023/09/16 08:25:54;;;;;;;28.50;22.90;;;;;;;20.26;95.55;98179.44;10406747;28;20044;-53
2023/09/16 08:30:53;;;;;;;25.95;23.35;;;;;;;21.10;96.06;98238.97;10406183;28;20037;-54
2023/09/16 08:35:54;;;;;;;26.80;21.60;;;;;;;21.58;92.22;98233.75;10411003;28;20039;-52
2023/09/16 08:41:06;;;;;;;23.00;20.17;;;;;;;21.59;86.99;98232.81;10413554;28;20067;-52
2023/09/16 08:46:16;;;;;;;22.23;19.83;;;;;;;21.39;86.90;98250.28;10411013;28;20149;-52
2023/09/16 08:51:17;;;;;;;21.42;18.83;;;;;;;21.64;87.79;98249.34;10412636;28;20525;-52
2023/09/16 08:56:17;;;;;;;21.65;19.27;;;;;;;21.71;85.38;98198.88;10411622;28;20206;-52
2023/09/16 09:01:20;;;;;;;20.23;17.83;;;;;;;22.16;80.46;98240.28;10411985;28;20060;-53
2023/09/16 09:06:20;;;;;;;19.33;17.13;;;;;;;22.21;78.56;98236.63;10409348;28;20048;-52
2023/09/16 09:11:21;;;;;;;20.00;16.85;;;;;;;22.22;76.91;98212.75;10411510;28;20058;-52
2023/09/16 09:16:21;;;;;;;17.48;15.68;;;;;;;22.11;74.41;98214.97;10409915;28;20061;-54
2023/09/16 09:21:21;;;;;;;16.77;15.15;;;;;;;22.50;74.41;98238.03;10411064;28;20040;-52
2023/09/16 09:26:20;;;;;;;17.50;15.65;;;;;;;22.74;73.58;98212.38;10409709;28;20044;-51
2023/09/16 09:31:19;;;;;;;17.10;15.30;;;;;;;23.16;71.13;98216.72;10411499;28;20117;-53
2023/09/16 09:36:18;;;;;;;17.73;15.18;;;;;;;23.42;68.76;98212.91;10411550;28;20107;-53
2023/09/16 09:41:17;;;;;;;17.60;14.90;;;;;;;23.53;66.46;98188.59;10407590;28;20103;-52
2023/09/16 09:46:17;;;;;;;17.73;14.98;;;;;;;23.58;65.80;98219.25;10407891;28;20035;-52
2023/09/16 09:51:17;;;;;;;18.75;16.40;;;;;;;23.69;67.03;98213.44;10410165;28;20071;-52
2023/09/16 09:56:17;;;;;;;17.73;15.82;;;;;;;23.69;67.12;98160.44;10410533;28;20086;-52
2023/09/16 10:01:16;;;;;;;14.63;13.10;;;;;;;24.59;65.84;98207.31;10410245;28;20115;-52
2023/09/16 10:06:18;;;;;;;15.23;13.70;;;;;;;25.22;62.18;98212.03;10409121;28;20042;-53
2023/09/16 10:11:20;;;;;;;17.15;14.48;;;;;;;25.83;62.09;98203.44;10409037;28;20063;-53
2023/09/16 10:16:19;;;;;;;14.65;13.07;;;;;;;26.02;57.15;98194.41;10412237;28;20075;-53
2023/09/16 10:21:19;;;;;;;14.48;13.02;;;;;;;26.17;55.56;98190.88;10411356;28;20059;-54
2023/09/16 10:26:18;;;;;;;14.65;13.07;;;;;;;25.99;56.40;98184.78;10410904;28;20055;-54
2023/09/16 10:31:18;;;;;;;12.82;11.52;;;;;;;25.78;55.83;98148.78;10411413;28;20551;-54
2023/09/16 10:36:17;;;;;;;13.68;12.23;;;;;;;26.17;56.18;98181.09;10411029;28;20048;-54
2023/09/16 10:41:17;;;;;;;13.63;11.77;;;;;;;26.29;53.42;98171.56;10411721;28;20056;-54
2023/09/16 10:46:17;;;;;;;13.80;11.65;;;;;;;26.04;53.81;98168.56;10410610;28;20088;-54
2023/09/16 10:51:23;;;;;;;13.80;10.55;;;;;;;25.85;52.28;98158.97;10411710;28;20068;-54
2023/09/16 10:56:36;;;;;;;13.00;10.68;;;;;;;25.42;53.04;98157.84;10410697;28;20059;-54
2023/09/16 11:01:47;;;;;;;12.20;10.98;;;;;;;25.18;54.35;98144.97;10410013;28;20044;-54
2023/09/16 11:06:50;;;;;;;13.07;10.52;;;;;;;25.24;54.27;98136.66;10409466;28;20083;-54
2023/09/16 11:11:50;;;;;;;13.93;12.40;;;;;;;25.36;54.64;98105.03;10407057;28;20051;-55
2023/09/16 11:16:51;;;;;;;12.48;11.18;;;;;;;24.72;55.46;98134.09;10405280;28;20136;-55
2023/09/16 11:21:52;;;;;;;14.60;11.98;;;;;;;24.89;55.98;98123.50;10401523;28;20064;-55
2023/09/16 11:26:51;;;;;;;13.10;11.80;;;;;;;24.95;55.79;98110.84;10404457;28;20499;-55
2023/09/16 11:31:53;;;;;;;13.10;11.65;;;;;;;24.62;54.84;98115.16;10406936;28;20055;-55
2023/09/16 11:37:00;;;;;;;13.93;12.27;;;;;;;24.88;55.61;98105.84;10405681;28;20056;-54
2023/09/16 11:41:59;;;;;;;12.98;11.10;;;;;;;24.83;53.72;98091.94;10407806;28;20059;-55
2023/09/16 11:47:00;;;;;;;16.15;11.70;;;;;;;23.75;54.39;97889.88;10404929;28;20043;-55
2023/09/16 11:51:59;;;;;;;11.73;10.48;;;;;;;24.42;53.01;97978.25;10406987;28;20067;-55
2023/09/16 11:56:58;;;;;;;11.55;10.45;;;;;;;24.71;53.43;98076.66;10406568;28;20048;-54
2023/09/16 12:01:58;;;;;;;13.75;10.90;;;;;;;24.64;53.48;98073.47;10406929;28;20056;-55
2023/09/16 12:06:57;;;;;;;13.60;11.60;;;;;;;25.01;52.99;98041.44;10406011;28;20044;-54
2023/09/16 12:11:57;;;;;;;12.90;11.60;;;;;;;25.19;52.87;98047.56;10409277;28;20111;-54
2023/09/16 12:16:56;;;;;;;12.95;11.65;;;;;;;25.70;53.45;98038.44;10413507;28;20156;-54
2023/09/16 12:21:55;;;;;;;11.93;10.73;;;;;;;26.03;51.18;98034.75;10411366;28;20044;-54
2023/09/16 12:26:54;;;;;;;11.63;10.43;;;;;;;26.36;50.03;98031.88;10413826;28;20048;-54
2023/09/16 12:32:07;;;;;;;11.70;10.60;;;;;;;26.68;50.45;98030.88;10413047;28;20105;-55
2023/09/16 12:37:06;;;;;;;13.93;11.40;;;;;;;27.05;49.96;98009.91;10413390;28;20044;-55
2023/09/16 12:42:06;;;;;;;12.07;10.75;;;;;;;27.38;48.63;98002.41;10412839;28;20055;-55
2023/09/16 12:47:06;;;;;;;11.90;10.43;;;;;;;27.07;47.47;97997.38;10410356;28;20111;-55
2023/09/16 12:52:07;;;;;;;11.38;10.05;;;;;;;26.89;47.54;97978.13;10413176;28;20051;-53
2023/09/16 12:57:07;;;;;;;11.70;10.50;;;;;;;26.62;47.57;97968.22;10404027;28;20067;-55
2023/09/16 13:02:06;;;;;;;13.48;10.13;;;;;;;26.46;47.14;97944.34;10409512;28;20123;-53
2023/09/16 13:07:06;;;;;;;14.27;10.27;;;;;;;26.51;47.46;97978.66;10411203;28;20526;-53
2023/09/16 13:12:05;;;;;;;11.07;9.98;;;;;;;26.64;48.09;97968.13;10412934;28;20061;-55
2023/09/16 13:17:04;;;;;;;11.15;9.95;;;;;;;26.49;48.12;97957.50;10415199;28;20087;-55
2023/09/16 13:22:10;;;;;;;11.27;10.15;;;;;;;26.86;48.51;97965.84;10412735;28;20052;-55
2023/09/16 13:27:09;;;;;;;11.27;9.88;;;;;;;26.96;47.56;97945.66;10414838;28;20499;-55
2023/09/16 13:32:09;;;;;;;11.73;9.48;;;;;;;27.16;46.97;97964.81;10412959;28;20609;-55
2023/09/16 13:37:08;;;;;;;12.15;9.93;;;;;;;27.11;47.13;97964.25;10414463;28;20048;-55
2023/09/16 13:42:07;;;;;;;11.90;10.63;;;;;;;27.20;46.58;97959.19;10412202;28;20039;-52
2023/09/16 13:47:06;;;;;;;11.70;9.82;;;;;;;27.33;47.04;97964.56;10405360;28;20059;-53
2023/09/16 13:52:05;;;;;;;12.75;9.50;;;;;;;27.55;46.15;97963.16;10408097;28;20066;-55
2023/09/16 13:57:04;;;;;;;11.57;9.60;;;;;;;27.37;45.50;97918.09;10408768;28;20028;-55
2023/09/16 14:02:03;;;;;;;49.47;14.43;;;;;;;27.38;46.11;97965.13;10411560;28;20053;-55
2023/09/16 14:07:03;;;;;;;16.30;10.15;;;;;;;27.07;45.96;97965.41;10406882;28;20059;-55
2023/09/16 14:12:02;;;;;;;14.18;10.45;;;;;;;27.06;46.48;97963.72;10407281;28;20068;-55
2023/09/16 14:17:00;;;;;;;11.70;10.10;;;;;;;27.14;45.82;97937.41;10406552;28;20072;-55
2023/09/16 14:22:00;;;;;;;11.13;9.93;;;;;;;27.32;45.75;97967.31;10407441;28;20032;-54
2023/09/16 14:26:59;;;;;;;10.82;9.13;;;;;;;26.85;45.51;97958.81;10406627;28;20098;-54
2023/09/16 14:31:58;;;;;;;11.68;9.57;;;;;;;26.66;46.03;97932.47;10408538;28;20034;-54
2023/09/16 14:36:57;;;;;;;11.25;9.57;;;;;;;26.83;45.40;97928.75;10405757;28;20024;-53
2023/09/16 14:41:56;;;;;;;17.02;9.75;;;;;;;27.35;46.09;97965.31;10403858;28;20112;-54
2023/09/16 14:46:55;;;;;;;10.40;9.02;;;;;;;27.16;47.08;97960.31;10405033;28;20112;-54
2023/09/16 14:51:56;;;;;;;10.40;8.93;;;;;;;26.99;47.45;97971.22;10406745;28;20051;-54
2023/09/16 14:56:55;;;;;;;11.52;9.73;;;;;;;26.65;47.72;97968.03;10405440;28;20119;-54
2023/09/16 15:01:54;;;;;;;11.18;10.10;;;;;;;26.30;48.58;97978.19;10405676;28;20115;-55
2023/09/16 15:06:52;;;;;;;12.75;9.88;;;;;;;25.94;50.58;97982.13;10408210;28;20024;-55
2023/09/16 15:11:51;;;;;;;11.60;9.18;;;;;;;25.54;51.79;97987.13;10406648;28;20460;-55
2023/09/16 15:16:50;;;;;;;15.75;10.50;;;;;;;24.68;52.69;97878.66;10407040;28;20823;-55
2023/09/16 15:21:49;;;;;;;12.77;10.50;;;;;;;24.90;53.74;97975.69;10407564;28;20025;-55
2023/09/16 15:26:51;;;;;;;12.20;10.35;;;;;;;25.05;53.88;97997.88;10406093;28;20111;-55
2023/09/16 15:31:50;;;;;;;12.07;9.88;;;;;;;24.92;53.31;97997.72;10407928;28;20067;-55
2023/09/16 15:36:49;;;;;;;11.55;9.88;;;;;;;24.79;54.00;97997.47;10406163;28;20031;-55
2023/09/16 15:41:48;;;;;;;11.85;10.23;;;;;;;24.69;54.36;98001.59;10404665;28;20031;-55
2023/09/16 15:46:47;;;;;;;12.10;10.20;;;;;;;24.64;54.34;98011.59;10415106;28;20025;-55
2023/09/16 15:51:46;;;;;;;11.35;8.82;;;;;;;24.73;53.69;98016.41;10414195;28;20689;-55
2023/09/16 15:56:45;;;;;;;10.13;8.57;;;;;;;24.66;53.81;98022.97;10415040;28;21015;-55
2023/09/16 16:01:44;;;;;;;10.63;9.25;;;;;;;24.47;54.86;98013.38;10414661;28;20021;-55
2023/09/16 16:06:43;;;;;;;14.27;9.68;;;;;;;24.43;56.55;98038.34;10413710;28;20008;-53
2023/09/16 16:11:42;;;;;;;14.40;10.50;;;;;;;24.18;59.52;98053.81;10412366;28;20111;-53
2023/09/16 16:16:41;;;;;;;30.25;17.13;;;;;;;24.00;67.71;98053.75;10412192;28;20048;-53
2023/09/16 16:21:40;;;;;;;22.45;15.82;;;;;;;23.50;71.10;98054.50;10413958;28;20077;-55
2023/09/16 16:26:39;;;;;;;27.30;17.33;;;;;;;23.09;75.75;98049.38;10412716;28;20063;-54
2023/09/16 16:31:38;;;;;;;22.15;16.75;;;;;;;21.92;77.73;97893.31;10413006;28;20043;-54
2023/09/16 16:36:37;;;;;;;19.13;17.00;;;;;;;22.53;79.17;98052.78;10413353;28;20021;-54
2023/09/16 16:41:36;;;;;;;21.40;17.80;;;;;;;22.37;80.52;98065.84;10413238;28;20116;-54
2023/09/16 16:46:35;;;;;;;19.58;17.02;;;;;;;22.25;81.02;98063.69;10417387;28;20039;-55
2023/09/16 16:51:34;;;;;;;20.33;18.00;;;;;;;21.65;83.06;97984.34;10412311;28;20476;-55
2023/09/16 16:56:33;;;;;;;20.38;18.13;;;;;;;22.02;82.42;98080.56;10409235;28;20615;-55
2023/09/16 17:01:33;;;;;;;22.23;17.98;;;;;;;21.76;83.20;98056.91;10409634;28;20056;-54
2023/09/16 17:06:34;;;;;;;20.48;17.45;;;;;;;21.95;83.57;98099.28;10409587;28;20179;-54
2023/09/16 17:11:33;;;;;;;21.70;18.10;;;;;;;21.96;83.88;98101.00;10411136;28;20055;-56
2023/09/16 17:16:32;;;;;;;25.17;19.65;;;;;;;22.00;84.81;98112.34;10413155;28;20049;-54
2023/09/16 17:21:31;;;;;;;22.55;19.35;;;;;;;22.00;85.33;98112.34;10413603;28;20502;-54
2023/09/16 17:26:31;;;;;;;23.85;19.65;;;;;;;21.80;85.60;98077.91;10413579;28;20027;-53
2023/09/16 17:31:30;;;;;;;25.85;21.73;;;;;;;22.01;86.47;98124.63;10416489;28;20664;-55
2023/09/16 17:36:29;;;;;;;17.42;15.52;;;;;;;21.63;83.33;98091.81;10411521;28;20891;-54
2023/09/16 17:41:28;;;;;;;19.85;16.73;;;;;;;21.62;82.02;98116.53;10410969;28;20040;-53
2023/09/16 17:46:27;;;;;;;20.58;17.35;;;;;;;21.53;82.86;98147.63;10412069;28;20715;-54
2023/09/16 17:51:26;;;;;;;22.77;18.70;;;;;;;21.49;83.80;98153.94;10411799;28;20471;-54
2023/09/16 17:56:25;;;;;;;21.40;18.67;;;;;;;21.61;84.97;98159.69;10410798;28;20420;-55
2023/09/16 18:01:24;;;;;;;23.52;19.85;;;;;;;21.40;85.70;98162.22;10410286;28;20024;-54
2023/09/16 18:06:23;;;;;;;23.73;21.08;;;;;;;21.38;87.36;98155.28;10412419;28;20049;-53
2023/09/16 18:11:22;;;;;;;25.83;20.85;;;;;;;21.50;88.52;98179.44;10413375;28;20023;-53
2023/09/16 18:16:21;;;;;;;23.80;21.15;;;;;;;21.25;88.89;98142.56;10413004;28;20082;-53
2023/09/16 18:21:21;;;;;;;27.35;21.88;;;;;;;21.44;89.19;98187.59;10412547;28;20566;-54
2023/09/16 18:26:20;;;;;;;25.23;22.52;;;;;;;21.41;89.49;98190.38;10412363;28;20074;-54
2023/09/16 18:31:19;;;;;;;24.88;22.15;;;;;;;21.38;90.69;98182.53;10411874;28;20028;-54
2023/09/16 18:36:18;;;;;;;27.52;23.83;;;;;;;21.30;91.04;98187.25;10411862;28;20107;-55
2023/09/16 18:41:19;;;;;;;29.42;24.80;;;;;;;21.26;91.25;98185.66;10413168;28;20044;-51
2023/09/16 18:46:18;;;;;;;35.72;26.77;;;;;;;21.09;91.41;98173.06;10412509;28;20507;-54
2023/09/16 18:51:17;;;;;;;31.35;26.33;;;;;;;21.11;91.11;98185.25;10413475;28;20072;-54
2023/09/16 18:56:17;;;;;;;31.80;27.33;;;;;;;21.03;90.74;98197.91;10411280;28;20035;-54
2023/09/16 19:01:16;;;;;;;32.38;26.15;;;;;;;20.87;91.65;98189.66;10408492;28;20051;-54
2023/09/16 19:06:15;;;;;;;34.17;27.63;;;;;;;20.84;91.81;98186.25;10411515;28;20055;-54
2023/09/16 19:11:15;;;;;;;33.28;27.63;;;;;;;20.85;91.82;98191.50;10408722;28;20025;-54
2023/09/16 19:16:14;;;;;;;33.45;27.42;;;;;;;20.80;92.27;98201.34;10405477;28;20128;-53
2023/09/16 19:21:13;;;;;;;33.42;27.27;;;;;;;20.59;92.04;98144.94;10405729;28;20107;-54
2023/09/16 19:26:12;;;;;;;32.22;26.83;;;;;;;20.57;92.04;98141.50;10407551;28;20028;-53
2023/09/16 19:31:11;;;;;;;35.50;27.50;;;;;;;20.65;92.40;98151.78;10403662;28;20029;-53
2023/09/16 19:36:10;;;;;;;34.53;27.17;;;;;;;20.63;92.26;98156.22;10406803;28;20111;-54
2023/09/16 19:41:09;;;;;;;37.65;28.40;;;;;;;20.52;92.55;98154.00;10406910;28;20028;-54
2023/09/16 19:46:08;;;;;;;35.97;29.50;;;;;;;20.24;92.45;98122.41;10408232;28;20037;-54
2023/09/16 19:51:07;;;;;;;40.47;29.58;;;;;;;20.12;93.05;98117.53;10406784;28;20110;-53
2023/09/16 19:56:06;;;;;;;42.30;31.73;;;;;;;20.03;94.17;98139.81;10405768;28;20090;-54
2023/09/16 20:01:05;;;;;;;40.38;31.67;;;;;;;20.01;94.83;98158.28;10407896;28;20051;-54
2023/09/16 20:06:04;;;;;;;39.83;30.80;;;;;;;19.57;95.89;98114.94;10407930;28;20847;-54
2023/09/16 20:11:03;;;;;;;42.00;32.88;;;;;;;19.52;95.56;98109.78;10405948;28;20033;-54
2023/09/16 20:16:02;;;;;;;52.90;37.15;;;;;;;19.60;96.59;98120.09;10406028;28;20033;-53
2023/09/16 20:21:01;;;;;;;55.58;37.55;;;;;;;19.50;96.98;98122.13;10409264;28;20060;-53
2023/09/16 20:26:00;;;;;;;56.13;36.45;;;;;;;19.64;96.99;98141.03;10408801;28;20031;-55
2023/09/16 20:30:59;;;;;;;55.53;36.70;;;;;;;19.78;97.10;98155.53;10413070;28;20056;-55
2023/09/16 20:36:01;;;;;;;52.63;34.78;;;;;;;19.51;96.96;98094.03;10416730;28;20016;-55
2023/09/16 20:41:00;;;;;;;46.47;33.85;;;;;;;19.84;97.07;98145.66;10414366;28;20123;-53
2023/09/16 20:45:59;;;;;;;46.85;33.58;;;;;;;19.80;96.91;98149.31;10414001;28;20043;-52
2023/09/16 20:50:58;;;;;;;49.00;33.05;;;;;;;19.77;97.05;98149.41;10415556;28;20029;-53
2023/09/16 20:56:02;;;;;;;46.20;32.33;;;;;;;19.78;96.61;98155.53;10413882;28;20028;-53
2023/09/16 21:01:01;;;;;;;42.05;31.67;;;;;;;19.75;96.31;98156.50;10412026;28;20123;-55
2023/09/16 21:06:00;;;;;;;45.28;31.17;;;;;;;19.68;96.29;98165.50;10415547;28;20027;-54
2023/09/16 21:10:59;;;;;;;44.60;31.27;;;;;;;19.64;95.85;98169.97;10413668;28;21467;-54
2023/09/16 21:15:58;;;;;;;48.50;31.70;;;;;;;19.47;95.68;98139.81;10412130;28;20024;-54
2023/09/16 21:20:57;;;;;;;46.63;31.25;;;;;;;19.48;95.91;98157.31;10411824;28;20094;-54
2023/09/16 21:25:56;;;;;;;40.58;29.45;;;;;;;19.34;95.98;98158.59;10411454;28;20024;-55
2023/09/16 21:30:57;;;;;;;41.60;30.27;;;;;;;19.30;96.19;98154.34;10411735;28;20071;-53
2023/09/16 21:35:56;;;;;;;45.88;29.55;;;;;;;19.09;95.85;98126.91;10410537;28;20103;-54
2023/09/16 21:40:55;;;;;;;47.60;30.58;;;;;;;19.20;95.80;98148.47;10410847;28;20083;-55
2023/09/16 21:45:55;;;;;;;40.05;29.67;;;;;;;18.93;95.25;98102.81;10411246;28;20384;-54
2023/09/16 21:50:54;;;;;;;40.10;28.55;;;;;;;19.13;95.15;98140.81;10410644;28;20056;-55
2023/09/16 21:55:53;;;;;;;36.50;27.20;;;;;;;18.87;94.91;98115.25;10410541;28;20123;-55
2023/09/16 22:00:53;;;;;;;36.95;28.13;;;;;;;18.98;95.08;98142.97;10409746;28;20043;-55
2023/09/16 22:05:53;;;;;;;40.92;29.60;;;;;;;18.83;95.03;98138.16;10410077;28;20056;-54
2023/09/16 22:10:56;;;;;;;45.75;31.80;;;;;;;18.85;95.77;98146.84;10410261;28;20071;-54
2023/09/16 22:15:56;;;;;;;43.95;31.58;;;;;;;18.78;97.05;98145.31;10408422;28;20123;-54
2023/09/16 22:20:55;;;;;;;45.13;31.52;;;;;;;18.61;98.49;98133.44;10410372;28;20484;-54
2023/09/16 22:26:05;;;;;;;44.80;31.45;;;;;;;18.57;99.12;98152.88;10410428;28;20483;-54
2023/09/16 22:31:04;;;;;;;50.72;33.92;;;;;;;18.50;99.83;98147.78;10410198;28;20052;-54
2023/09/16 22:36:04;;;;;;;54.83;37.13;;;;;;;18.72;99.89;98150.75;10410169;28;20040;-54
2023/09/16 22:41:03;;;;;;;82.82;43.05;;;;;;;18.79;99.87;98160.19;10412919;28;20067;-54